createdAt,value
2022-11-02T00:00:04.121Z,71.44
2022-11-02T00:00:14.141Z,71.41
2022-11-02T00:00:24.121Z,71.46
2022-11-02T00:00:34.170Z,71.47
2022-11-02T00:00:44.137Z,71.51
2022-11-02T00:00:53.651Z,71.52
2022-11-02T00:01:04.128Z,71.48
2022-11-02T00:01:12.691Z,71.53
2022-11-02T00:01:22.715Z,71.43
2022-11-02T00:01:34.231Z,71.48
2022-11-02T00:01:43.777Z,71.60
2022-11-02T00:01:54.199Z,71.57
2022-11-02T00:02:02.830Z,71.60
2022-11-02T00:02:12.704Z,71.45
2022-11-02T00:02:22.688Z,71.51
2022-11-02T00:02:33.484Z,71.48
2022-11-02T00:02:42.705Z,71.57
2022-11-02T00:02:54.178Z,71.51
2022-11-02T00:03:04.433Z,71.55
2022-11-02T00:03:12.775Z,71.48
2022-11-02T00:03:23.645Z,71.33
2022-11-02T00:03:34.132Z,71.48
2022-11-02T00:03:44.108Z,71.45
2022-11-02T00:03:52.652Z,71.45
2022-11-02T00:04:02.652Z,71.31
2022-11-02T00:04:13.642Z,71.31
2022-11-02T00:04:24.099Z,71.26
2022-11-02T00:04:32.642Z,71.29
2022-11-02T00:04:43.593Z,71.17
2022-11-02T00:04:54.093Z,71.23
2022-11-02T00:05:02.641Z,71.24
2022-11-02T00:05:14.113Z,71.14
2022-11-02T00:05:23.445Z,71.21
2022-11-02T00:05:32.647Z,71.02
2022-11-02T00:05:44.090Z,70.92
2022-11-02T00:05:54.101Z,71.00
2022-11-02T00:06:03.641Z,70.97
2022-11-02T00:06:14.081Z,70.91
2022-11-02T00:06:24.069Z,70.94
2022-11-02T00:06:32.631Z,70.93
2022-11-02T00:06:43.577Z,70.84
2022-11-02T00:06:54.097Z,70.88
2022-11-02T00:07:02.642Z,70.87
2022-11-02T00:07:14.092Z,70.75
2022-11-02T00:07:23.512Z,70.86
2022-11-02T00:07:32.631Z,70.77
2022-11-02T00:07:44.072Z,70.73
2022-11-02T00:07:52.634Z,70.81
2022-11-02T00:08:03.445Z,70.65
2022-11-02T00:08:14.072Z,70.70
2022-11-02T00:08:22.674Z,70.73
2022-11-02T00:08:34.072Z,70.66
2022-11-02T00:08:43.382Z,70.73
2022-11-02T00:08:54.071Z,70.66
2022-11-02T00:09:04.055Z,70.63
2022-11-02T00:09:13.592Z,70.59
2022-11-02T00:09:24.060Z,70.54
2022-11-02T00:09:34.082Z,70.54
2022-11-02T00:09:42.613Z,70.50
2022-11-02T00:09:52.623Z,70.45
2022-11-02T00:10:04.083Z,70.45
2022-11-02T00:10:12.615Z,70.55
2022-11-02T00:10:22.603Z,70.48
2022-11-02T00:10:34.082Z,70.49
2022-11-02T00:10:43.448Z,70.56
2022-11-02T00:10:52.612Z,70.45
2022-11-02T00:11:04.054Z,70.40
2022-11-02T00:11:13.394Z,70.47
2022-11-02T00:11:22.601Z,70.43
2022-11-02T00:11:32.594Z,70.35
2022-11-02T00:11:42.614Z,70.43
2022-11-02T00:11:54.043Z,70.40
2022-11-02T00:12:02.594Z,70.47
2022-11-02T00:12:12.615Z,70.35
2022-11-02T00:12:24.045Z,70.36
2022-11-02T00:12:34.072Z,70.44
2022-11-02T00:12:43.513Z,70.41
2022-11-02T00:12:53.044Z,70.36
2022-11-02T00:13:02.932Z,70.35
2022-11-02T00:13:13.465Z,70.36
2022-11-02T00:13:24.034Z,70.33
2022-11-02T00:13:32.574Z,70.33
2022-11-02T00:13:43.214Z,70.26
2022-11-02T00:13:53.045Z,70.32
2022-11-02T00:14:03.188Z,70.27
2022-11-02T00:14:12.573Z,70.25
2022-11-02T00:14:23.155Z,70.20
2022-11-02T00:14:33.185Z,70.19
2022-11-02T00:14:43.015Z,70.19
2022-11-02T00:14:53.053Z,70.18
2022-11-02T00:15:03.196Z,70.14
2022-11-02T00:15:14.023Z,70.15
2022-11-02T00:15:23.265Z,70.18
2022-11-02T00:15:33.296Z,70.08
2022-11-02T00:15:42.562Z,70.10
2022-11-02T00:15:52.565Z,70.03
2022-11-02T00:16:03.307Z,70.05
2022-11-02T00:16:12.555Z,70.08
2022-11-02T00:16:23.381Z,70.00
2022-11-02T00:16:33.407Z,70.04
2022-11-02T00:16:44.006Z,70.04
2022-11-02T00:16:53.376Z,70.06
2022-11-02T00:17:03.995Z,70.02
2022-11-02T00:17:14.014Z,70.05
2022-11-02T00:17:23.077Z,70.05
2022-11-02T00:17:33.994Z,69.92
2022-11-02T00:17:44.018Z,69.98
2022-11-02T00:17:52.854Z,69.91
2022-11-02T00:18:12.983Z,70.24
2022-11-02T00:18:24.446Z,70.05
2022-11-02T00:18:34.444Z,69.98
2022-11-02T00:18:44.523Z,69.93
2022-11-02T00:18:53.495Z,69.89
2022-11-02T00:19:02.987Z,69.81
2022-11-02T00:19:12.985Z,69.80
2022-11-02T00:19:23.005Z,69.82
2022-11-02T00:19:33.107Z,69.83
2022-11-02T00:19:42.982Z,69.78
2022-11-02T00:19:53.497Z,69.80
2022-11-02T00:20:03.537Z,69.79
2022-11-02T00:20:14.423Z,69.78
2022-11-02T00:20:23.506Z,69.83
2022-11-02T00:20:33.444Z,69.76
2022-11-02T00:20:43.567Z,69.77
2022-11-02T00:20:53.105Z,69.77
2022-11-02T00:21:03.538Z,69.70
2022-11-02T00:21:12.966Z,69.78
2022-11-02T00:21:23.615Z,69.74
2022-11-02T00:21:33.924Z,69.76
2022-11-02T00:21:43.576Z,69.76
2022-11-02T00:21:53.097Z,69.78
2022-11-02T00:22:03.654Z,69.74
2022-11-02T00:22:12.955Z,69.74
2022-11-02T00:22:22.987Z,69.72
2022-11-02T00:22:32.978Z,69.73
2022-11-02T00:22:42.973Z,69.69
2022-11-02T00:22:53.007Z,69.67
2022-11-02T00:23:03.358Z,69.67
2022-11-02T00:23:12.976Z,69.68
2022-11-02T00:23:23.727Z,69.66
2022-11-02T00:23:32.945Z,69.67
2022-11-02T00:23:42.968Z,69.64
2022-11-02T00:23:53.123Z,69.62
2022-11-02T00:24:03.958Z,69.61
2022-11-02T00:24:12.969Z,69.63
2022-11-02T00:24:22.969Z,69.57
2022-11-02T00:24:32.974Z,69.54
2022-11-02T00:24:44.416Z,69.53
2022-11-02T00:24:52.947Z,69.60
2022-11-02T00:25:03.005Z,69.47
2022-11-02T00:25:12.987Z,69.46
2022-11-02T00:25:22.939Z,69.47
2022-11-02T00:25:32.960Z,69.50
2022-11-02T00:25:43.797Z,69.47
2022-11-02T00:25:52.944Z,69.53
2022-11-02T00:26:04.419Z,69.49
2022-11-02T00:26:12.937Z,69.55
2022-11-02T00:26:22.967Z,69.51
2022-11-02T00:26:34.396Z,69.53
2022-11-02T00:26:42.945Z,69.74
2022-11-02T00:26:54.395Z,69.62
2022-11-02T00:27:02.955Z,69.70
2022-11-02T00:27:14.405Z,69.56
2022-11-02T00:27:23.257Z,69.67
2022-11-02T00:27:34.395Z,69.62
2022-11-02T00:27:42.928Z,69.72
2022-11-02T00:27:52.935Z,69.63
2022-11-02T00:28:02.938Z,69.65
2022-11-02T00:28:12.947Z,69.67
2022-11-02T00:28:22.967Z,69.67
2022-11-02T00:28:33.785Z,69.69
2022-11-02T00:28:44.388Z,69.76
2022-11-02T00:28:52.917Z,69.77
2022-11-02T00:29:02.938Z,69.61
2022-11-02T00:29:12.918Z,69.62
2022-11-02T00:29:22.938Z,69.67
2022-11-02T00:29:34.100Z,69.69
2022-11-02T00:29:42.927Z,69.74
2022-11-02T00:29:54.378Z,69.60
2022-11-02T00:30:02.928Z,69.72
2022-11-02T00:30:14.376Z,69.60
2022-11-02T00:30:22.918Z,69.73
2022-11-02T00:30:32.908Z,69.58
2022-11-02T00:30:44.377Z,69.60
2022-11-02T00:30:54.359Z,69.76
2022-11-02T00:31:03.867Z,69.71
2022-11-02T00:31:12.925Z,69.69
2022-11-02T00:31:24.368Z,69.61
2022-11-02T00:31:33.860Z,69.73
2022-11-02T00:31:44.422Z,69.64
2022-11-02T00:31:52.890Z,69.69
2022-11-02T00:32:03.701Z,69.58
2022-11-02T00:32:12.916Z,69.64
2022-11-02T00:32:24.387Z,69.58
2022-11-02T00:32:32.897Z,69.72
2022-11-02T00:32:44.359Z,69.60
2022-11-02T00:32:52.889Z,69.74
2022-11-02T00:33:04.245Z,69.63
2022-11-02T00:33:13.861Z,69.82
2022-11-02T00:33:22.893Z,69.72
2022-11-02T00:33:34.348Z,69.71
2022-11-02T00:33:44.358Z,69.85
2022-11-02T00:33:53.848Z,69.84
2022-11-02T00:34:04.368Z,69.81
2022-11-02T00:34:14.337Z,69.90
2022-11-02T00:34:22.879Z,69.84
2022-11-02T00:34:34.317Z,69.83
2022-11-02T00:34:44.338Z,69.93
2022-11-02T00:34:54.340Z,69.97
2022-11-02T00:35:02.909Z,69.96
2022-11-02T00:35:12.888Z,69.88
2022-11-02T00:35:24.338Z,69.90
2022-11-02T00:35:33.859Z,70.07
2022-11-02T00:35:42.899Z,70.08
2022-11-02T00:35:54.331Z,70.04
2022-11-02T00:36:02.880Z,70.14
2022-11-02T00:36:12.885Z,70.05
2022-11-02T00:36:22.889Z,70.10
2022-11-02T00:36:34.330Z,70.14
2022-11-02T00:36:42.933Z,70.25
2022-11-02T00:36:55.460Z,70.14
2022-11-02T00:37:02.879Z,70.35
2022-11-02T00:37:14.317Z,70.34
2022-11-02T00:37:22.933Z,70.30
2022-11-02T00:37:44.330Z,70.24
2022-11-02T00:37:54.322Z,70.28
2022-11-02T00:38:03.653Z,70.26
2022-11-02T00:38:14.321Z,70.24
2022-11-02T00:38:22.863Z,70.26
2022-11-02T00:38:34.303Z,70.22
2022-11-02T00:38:44.308Z,70.29
2022-11-02T00:38:52.860Z,70.24
2022-11-02T00:39:02.860Z,70.19
2022-11-02T00:39:12.849Z,70.26
2022-11-02T00:39:22.854Z,70.30
2022-11-02T00:39:33.460Z,70.31
2022-11-02T00:39:44.281Z,70.33
2022-11-02T00:39:52.921Z,70.41
2022-11-02T00:40:03.462Z,70.32
2022-11-02T00:40:13.695Z,70.38
2022-11-02T00:40:23.537Z,70.43
2022-11-02T00:40:33.466Z,70.37
2022-11-02T00:40:42.828Z,70.35
2022-11-02T00:40:53.130Z,70.34
2022-11-02T00:41:03.579Z,70.37
2022-11-02T00:41:12.825Z,70.39
2022-11-02T00:41:23.549Z,70.31
2022-11-02T00:41:33.575Z,70.42
2022-11-02T00:41:42.853Z,70.36
2022-11-02T00:41:53.542Z,70.38
2022-11-02T00:42:03.585Z,70.45
2022-11-02T00:42:13.208Z,70.44
2022-11-02T00:42:23.550Z,70.45
2022-11-02T00:42:34.272Z,70.48
2022-11-02T00:42:44.284Z,70.57
2022-11-02T00:42:53.652Z,70.51
2022-11-02T00:43:02.874Z,70.43
2022-11-02T00:43:12.829Z,70.44
2022-11-02T00:43:24.281Z,70.45
2022-11-02T00:43:34.273Z,70.57
2022-11-02T00:43:42.833Z,70.56
2022-11-02T00:43:53.050Z,70.46
2022-11-02T00:44:03.702Z,70.51
2022-11-02T00:44:12.811Z,70.58
2022-11-02T00:44:23.670Z,70.51
2022-11-02T00:44:32.801Z,70.54
2022-11-02T00:44:42.801Z,70.46
2022-11-02T00:44:54.262Z,70.51
2022-11-02T00:45:03.814Z,70.57
2022-11-02T00:45:14.239Z,70.54
2022-11-02T00:45:24.264Z,70.54
2022-11-02T00:45:32.800Z,70.60
2022-11-02T00:45:43.676Z,70.50
2022-11-02T00:45:54.252Z,70.55
2022-11-02T00:46:02.810Z,70.58
2022-11-02T00:46:12.801Z,70.55
2022-11-02T00:46:22.834Z,70.54
2022-11-02T00:46:34.250Z,70.57
2022-11-02T00:46:44.307Z,70.64
2022-11-02T00:46:52.802Z,70.60
2022-11-02T00:47:04.261Z,70.54
2022-11-02T00:47:12.802Z,70.63
2022-11-02T00:47:22.804Z,70.55
2022-11-02T00:47:32.803Z,70.56
2022-11-02T00:47:42.835Z,70.59
2022-11-02T00:47:52.876Z,70.59
2022-11-02T00:48:03.149Z,70.62
2022-11-02T00:48:12.903Z,70.66
2022-11-02T00:48:22.876Z,70.64
2022-11-02T00:48:32.910Z,70.60
2022-11-02T00:48:42.782Z,70.65
2022-11-02T00:48:52.872Z,70.69
2022-11-02T00:49:02.918Z,70.69
2022-11-02T00:49:12.947Z,70.69
2022-11-02T00:49:22.883Z,70.74
2022-11-02T00:49:32.912Z,70.71
2022-11-02T00:49:42.953Z,70.69
2022-11-02T00:49:52.982Z,70.69
2022-11-02T00:50:02.913Z,70.75
2022-11-02T00:50:12.957Z,70.72
2022-11-02T00:50:22.992Z,70.72
2022-11-02T00:50:34.012Z,70.74
2022-11-02T00:50:42.756Z,70.76
2022-11-02T00:50:54.221Z,70.62
2022-11-02T00:51:03.058Z,70.74
2022-11-02T00:51:12.960Z,70.70
2022-11-02T00:51:23.001Z,70.72
2022-11-02T00:51:33.035Z,70.73
2022-11-02T00:51:43.603Z,70.77
2022-11-02T00:51:52.783Z,70.79
2022-11-02T00:52:02.837Z,70.75
2022-11-02T00:52:12.973Z,70.73
2022-11-02T00:52:22.751Z,70.78
2022-11-02T00:52:34.323Z,70.79
2022-11-02T00:52:42.783Z,70.88
2022-11-02T00:52:53.114Z,70.77
2022-11-02T00:53:04.192Z,70.81
2022-11-02T00:53:13.755Z,70.87
2022-11-02T00:53:24.211Z,70.86
2022-11-02T00:53:34.203Z,70.86
2022-11-02T00:53:44.213Z,70.85
2022-11-02T00:53:53.694Z,70.86
2022-11-02T00:54:04.213Z,70.80
2022-11-02T00:54:14.226Z,70.82
2022-11-02T00:54:25.920Z,70.84
2022-11-02T00:54:32.774Z,71.08
2022-11-02T00:54:42.777Z,70.99
2022-11-02T00:54:52.744Z,70.92
2022-11-02T00:55:02.775Z,70.89
2022-11-02T00:55:13.524Z,70.90
2022-11-02T00:55:22.743Z,70.93
2022-11-02T00:55:34.194Z,70.86
2022-11-02T00:55:44.184Z,70.94
2022-11-02T00:55:52.745Z,70.93
2022-11-02T00:56:02.734Z,70.84
2022-11-02T00:56:12.795Z,70.92
2022-11-02T00:56:24.179Z,70.91
2022-11-02T00:56:33.654Z,71.02
2022-11-02T00:56:42.725Z,70.99
2022-11-02T00:56:53.700Z,70.89
2022-11-02T00:57:02.766Z,71.00
2022-11-02T00:57:12.732Z,70.96
2022-11-02T00:57:22.740Z,70.98
2022-11-02T00:57:34.168Z,71.00
2022-11-02T00:57:44.162Z,71.07
2022-11-02T00:57:53.221Z,71.10
2022-11-02T00:58:04.464Z,71.00
2022-11-02T00:58:14.164Z,71.05
2022-11-02T00:58:22.712Z,70.98
2022-11-02T00:58:33.715Z,70.92
2022-11-02T00:58:44.163Z,71.01
2022-11-02T00:58:52.814Z,70.99
2022-11-02T00:59:02.703Z,70.97
2022-11-02T00:59:12.738Z,70.98
2022-11-02T00:59:23.639Z,71.01
2022-11-02T00:59:34.188Z,71.03
2022-11-02T00:59:44.161Z,71.08
2022-11-02T00:59:54.165Z,71.07
2022-11-02T01:00:02.718Z,71.09
2022-11-02T01:00:12.706Z,71.03
2022-11-02T01:00:24.145Z,71.06
2022-11-02T01:00:34.156Z,71.10
2022-11-02T01:00:43.688Z,71.11
2022-11-02T01:00:52.773Z,71.06
2022-11-02T01:01:03.606Z,71.05
2022-11-02T01:01:14.258Z,71.13
2022-11-02T01:01:22.808Z,71.17
2022-11-02T01:01:34.321Z,71.06
2022-11-02T01:01:44.277Z,71.23
2022-11-02T01:01:53.823Z,71.21
2022-11-02T01:02:02.732Z,71.16
2022-11-02T01:02:12.873Z,71.07
2022-11-02T01:02:24.214Z,71.15
2022-11-02T01:02:34.320Z,71.22
2022-11-02T01:02:42.940Z,71.22
2022-11-02T01:02:54.123Z,71.14
2022-11-02T01:03:02.726Z,71.23
2022-11-02T01:03:14.133Z,71.13
2022-11-02T01:03:24.135Z,71.24
2022-11-02T01:03:34.144Z,71.24
2022-11-02T01:03:44.145Z,71.22
2022-11-02T01:03:54.124Z,71.22
2022-11-02T01:04:04.140Z,71.25
2022-11-02T01:04:12.678Z,71.23
2022-11-02T01:04:22.692Z,71.14
2022-11-02T01:04:32.688Z,71.23
2022-11-02T01:04:42.696Z,71.20
2022-11-02T01:04:52.694Z,71.25
2022-11-02T01:05:04.118Z,71.28
2022-11-02T01:05:12.704Z,71.31
2022-11-02T01:05:24.136Z,71.28
2022-11-02T01:05:32.688Z,71.33
2022-11-02T01:05:43.548Z,71.24
2022-11-02T01:05:52.794Z,71.29
2022-11-02T01:06:04.128Z,71.28
2022-11-02T01:06:14.107Z,71.35
2022-11-02T01:06:24.107Z,71.37
2022-11-02T01:06:32.666Z,71.32
2022-11-02T01:06:44.117Z,71.24
2022-11-02T01:06:54.096Z,71.33
2022-11-02T01:07:02.649Z,71.33
2022-11-02T01:07:12.646Z,71.26
2022-11-02T01:07:24.117Z,71.27
2022-11-02T01:07:34.093Z,71.43
2022-11-02T01:07:44.108Z,71.43
2022-11-02T01:07:52.646Z,71.45
2022-11-02T01:08:04.309Z,71.34
2022-11-02T01:08:12.668Z,71.48
2022-11-02T01:08:22.786Z,71.37
2022-11-02T01:08:32.696Z,71.44
2022-11-02T01:08:43.516Z,71.43
2022-11-02T01:08:52.647Z,71.48
2022-11-02T01:09:04.077Z,71.47
2022-11-02T01:09:14.087Z,71.54
2022-11-02T01:09:23.448Z,71.56
2022-11-02T01:09:34.091Z,71.47
2022-11-02T01:09:42.657Z,71.56
2022-11-02T01:09:52.639Z,71.40
2022-11-02T01:10:02.639Z,71.44
2022-11-02T01:10:12.624Z,71.46
2022-11-02T01:10:22.656Z,71.45
2022-11-02T01:10:34.090Z,71.49
2022-11-02T01:10:47.212Z,71.65
2022-11-02T01:10:54.557Z,71.87
2022-11-02T01:11:03.087Z,71.83
2022-11-02T01:11:14.548Z,71.63
2022-11-02T01:11:24.035Z,71.70
2022-11-02T01:11:33.097Z,71.70
2022-11-02T01:11:44.527Z,71.66
2022-11-02T01:11:53.078Z,71.79
2022-11-02T01:12:03.098Z,71.71
2022-11-02T01:12:14.065Z,71.75
2022-11-02T01:12:23.068Z,71.83
2022-11-02T01:12:33.112Z,71.80
2022-11-02T01:12:43.117Z,71.84
2022-11-02T01:12:53.177Z,71.84
2022-11-02T01:13:04.536Z,71.84
2022-11-02T01:13:14.517Z,71.95
2022-11-02T01:13:23.829Z,71.89
2022-11-02T01:13:33.092Z,71.87
2022-11-02T01:13:44.527Z,71.82
2022-11-02T01:13:53.079Z,71.92
2022-11-02T01:14:03.089Z,71.84
2022-11-02T01:14:13.095Z,71.88
2022-11-02T01:14:23.969Z,71.86
2022-11-02T01:14:34.517Z,71.95
2022-11-02T01:14:44.517Z,71.93
2022-11-02T01:14:54.526Z,71.91
2022-11-02T01:15:04.529Z,71.93
2022-11-02T01:15:13.088Z,71.93
2022-11-02T01:15:23.089Z,71.87
2022-11-02T01:15:33.879Z,71.89
2022-11-02T01:15:43.069Z,72.02
2022-11-02T01:15:53.071Z,71.98
2022-11-02T01:16:04.538Z,72.01
2022-11-02T01:16:13.059Z,72.16
2022-11-02T01:16:23.049Z,72.03
2022-11-02T01:16:33.165Z,72.00
2022-11-02T01:16:54.508Z,72.12
2022-11-02T01:17:03.073Z,72.04
2022-11-02T01:17:13.052Z,71.98
2022-11-02T01:17:23.066Z,72.00
2022-11-02T01:17:34.518Z,72.07
2022-11-02T01:17:44.489Z,72.16
2022-11-02T01:17:53.051Z,72.15
2022-11-02T01:18:03.430Z,72.04
2022-11-02T01:18:14.497Z,72.14
2022-11-02T01:18:24.477Z,72.08
2022-11-02T01:18:33.044Z,72.06
2022-11-02T01:18:44.490Z,72.00
2022-11-02T01:18:54.499Z,72.12
2022-11-02T01:19:03.052Z,72.05
2022-11-02T01:19:13.050Z,71.97
2022-11-02T01:19:24.021Z,71.98
2022-11-02T01:19:34.493Z,72.08
2022-11-02T01:19:43.019Z,72.10
2022-11-02T01:19:53.039Z,72.05
2022-11-02T01:20:04.481Z,72.11
2022-11-02T01:20:13.035Z,72.14
2022-11-02T01:20:24.489Z,72.09
2022-11-02T01:20:34.478Z,72.12
2022-11-02T01:20:44.458Z,72.07
2022-11-02T01:20:53.020Z,72.06
2022-11-02T01:21:03.863Z,71.96
2022-11-02T01:21:13.035Z,72.03
2022-11-02T01:21:24.457Z,72.02
2022-11-02T01:21:34.474Z,72.10
2022-11-02T01:21:43.019Z,72.09
2022-11-02T01:21:53.039Z,72.01
2022-11-02T01:22:03.010Z,72.04
2022-11-02T01:22:14.481Z,72.06
2022-11-02T01:22:24.458Z,72.15
2022-11-02T01:22:34.524Z,72.17
2022-11-02T01:22:43.959Z,72.11
2022-11-02T01:22:54.461Z,72.08
2022-11-02T01:23:04.460Z,72.12
2022-11-02T01:23:14.450Z,72.10
2022-11-02T01:23:23.019Z,72.08
2022-11-02T01:23:33.249Z,72.05
2022-11-02T01:23:43.281Z,72.08
2022-11-02T01:23:53.119Z,72.09
2022-11-02T01:24:03.252Z,72.03
2022-11-02T01:24:13.302Z,72.05
2022-11-02T01:24:23.211Z,72.06
2022-11-02T01:24:32.981Z,72.04
2022-11-02T01:24:43.291Z,72.07
2022-11-02T01:24:53.121Z,72.07
2022-11-02T01:25:03.362Z,72.05
2022-11-02T01:25:13.063Z,72.07
2022-11-02T01:25:23.021Z,72.05
2022-11-02T01:25:33.261Z,72.04
2022-11-02T01:25:43.298Z,72.05
2022-11-02T01:25:53.023Z,72.06
2022-11-02T01:26:03.162Z,72.00
2022-11-02T01:26:13.305Z,72.03
2022-11-02T01:26:23.338Z,72.03
2022-11-02T01:26:33.269Z,72.09
2022-11-02T01:26:43.302Z,72.03
2022-11-02T01:26:53.031Z,72.04
2022-11-02T01:27:03.271Z,72.01
2022-11-02T01:27:13.303Z,72.03
2022-11-02T01:27:22.961Z,72.07
2022-11-02T01:27:33.005Z,72.03
2022-11-02T01:27:42.961Z,72.01
2022-11-02T01:27:52.991Z,72.02
2022-11-02T01:28:04.746Z,72.00
2022-11-02T01:28:14.441Z,72.15
2022-11-02T01:28:22.981Z,72.07
2022-11-02T01:28:34.465Z,71.97
2022-11-02T01:28:44.418Z,72.07
2022-11-02T01:28:52.982Z,72.03
2022-11-02T01:29:02.960Z,71.91
2022-11-02T01:29:14.471Z,71.97
2022-11-02T01:29:23.001Z,72.03
2022-11-02T01:29:32.972Z,71.95
2022-11-02T01:29:44.424Z,71.93
2022-11-02T01:29:52.963Z,72.06
2022-11-02T01:30:04.412Z,71.92
2022-11-02T01:30:12.974Z,72.06
2022-11-02T01:30:24.402Z,72.00
2022-11-02T01:30:34.403Z,72.12
2022-11-02T01:30:42.944Z,72.11
2022-11-02T01:30:54.414Z,72.01
2022-11-02T01:31:03.923Z,72.14
2022-11-02T01:31:12.959Z,72.07
2022-11-02T01:31:24.420Z,72.08
2022-11-02T01:31:32.949Z,72.18
2022-11-02T01:31:43.862Z,72.07
2022-11-02T01:31:52.943Z,72.17
2022-11-02T01:32:02.942Z,72.09
2022-11-02T01:32:12.977Z,72.06
2022-11-02T01:32:22.942Z,72.10
2022-11-02T01:32:34.411Z,72.12
2022-11-02T01:32:42.932Z,72.25
2022-11-02T01:32:52.946Z,72.16
2022-11-02T01:33:02.942Z,72.19
2022-11-02T01:33:12.967Z,72.23
2022-11-02T01:33:22.933Z,72.16
2022-11-02T01:33:32.941Z,72.24
2022-11-02T01:33:42.930Z,72.25
2022-11-02T01:33:54.382Z,72.24
2022-11-02T01:34:02.930Z,72.31
2022-11-02T01:34:14.382Z,72.19
2022-11-02T01:34:23.863Z,72.36
2022-11-02T01:34:32.933Z,72.28
2022-11-02T01:34:42.922Z,72.20
2022-11-02T01:34:52.923Z,72.25
2022-11-02T01:35:02.982Z,72.24
2022-11-02T01:35:13.784Z,72.27
2022-11-02T01:35:24.355Z,72.30
2022-11-02T01:35:34.352Z,72.31
2022-11-02T01:35:44.363Z,72.27
2022-11-02T01:35:54.352Z,72.27
2022-11-02T01:36:02.914Z,72.23
2022-11-02T01:36:13.017Z,72.18
2022-11-02T01:36:32.905Z,72.20
2022-11-02T01:36:44.394Z,72.20
2022-11-02T01:36:53.865Z,72.30
2022-11-02T01:37:02.903Z,72.26
2022-11-02T01:37:12.918Z,72.21
2022-11-02T01:37:24.346Z,72.26
2022-11-02T01:37:34.353Z,72.31
2022-11-02T01:37:44.364Z,72.31
2022-11-02T01:37:52.910Z,72.30
2022-11-02T01:38:03.290Z,72.22
2022-11-02T01:38:14.333Z,72.31
2022-11-02T01:38:22.893Z,72.35
2022-11-02T01:38:32.909Z,72.24
2022-11-02T01:38:42.903Z,72.33
2022-11-02T01:38:53.685Z,72.31
2022-11-02T01:39:04.423Z,72.39
2022-11-02T01:39:14.471Z,72.42
2022-11-02T01:39:24.360Z,72.38
2022-11-02T01:39:34.367Z,72.30
2022-11-02T01:39:43.858Z,72.34
2022-11-02T01:39:54.342Z,72.35
2022-11-02T01:40:02.884Z,72.39
2022-11-02T01:40:14.343Z,72.28
2022-11-02T01:40:24.327Z,72.44
2022-11-02T01:40:34.325Z,72.36
2022-11-02T01:40:42.873Z,72.39
2022-11-02T01:40:54.343Z,72.36
2022-11-02T01:41:04.352Z,72.43
2022-11-02T01:41:12.869Z,72.45
2022-11-02T01:41:24.354Z,72.38
2022-11-02T01:41:32.864Z,72.49
2022-11-02T01:41:44.356Z,72.38
2022-11-02T01:41:54.322Z,72.50
2022-11-02T01:42:04.325Z,72.48
2022-11-02T01:42:14.315Z,72.45
2022-11-02T01:42:22.871Z,72.46
2022-11-02T01:42:34.315Z,72.36
2022-11-02T01:42:44.315Z,72.47
2022-11-02T01:42:53.416Z,72.44
2022-11-02T01:43:02.887Z,72.39
2022-11-02T01:43:12.854Z,72.41
2022-11-02T01:43:24.315Z,72.45
2022-11-02T01:43:34.304Z,72.54
2022-11-02T01:43:44.303Z,72.55
2022-11-02T01:43:52.858Z,72.53
2022-11-02T01:44:04.315Z,72.39
2022-11-02T01:44:14.342Z,72.56
2022-11-02T01:44:22.946Z,72.53
2022-11-02T01:44:34.282Z,72.48
2022-11-02T01:44:42.853Z,72.56
2022-11-02T01:44:52.852Z,72.50
2022-11-02T01:45:02.865Z,72.48
2022-11-02T01:45:12.855Z,72.51
2022-11-02T01:45:24.295Z,72.50
2022-11-02T01:45:32.835Z,72.59
2022-11-02T01:45:42.846Z,72.47
2022-11-02T01:45:52.846Z,72.51
2022-11-02T01:46:03.605Z,72.50
2022-11-02T01:46:14.277Z,72.55
2022-11-02T01:46:22.836Z,72.60
2022-11-02T01:46:32.945Z,72.50
2022-11-02T01:46:42.836Z,72.47
2022-11-02T01:46:52.836Z,72.49
2022-11-02T01:47:04.295Z,72.53
2022-11-02T01:47:14.273Z,72.64
2022-11-02T01:47:22.835Z,72.63
2022-11-02T01:47:32.835Z,72.53
2022-11-02T01:47:44.289Z,72.55
2022-11-02T01:47:54.274Z,72.63
2022-11-02T01:48:03.251Z,72.62
2022-11-02T01:48:14.341Z,72.57
2022-11-02T01:48:24.276Z,72.63
2022-11-02T01:48:34.264Z,72.59
2022-11-02T01:48:42.817Z,72.55
2022-11-02T01:48:54.285Z,72.50
2022-11-02T01:49:04.276Z,72.56
2022-11-02T01:49:14.266Z,72.61
2022-11-02T01:49:24.311Z,72.57
2022-11-02T01:49:32.806Z,72.56
2022-11-02T01:49:42.816Z,72.47
2022-11-02T01:49:52.816Z,72.49
2022-11-02T01:50:02.828Z,72.51
2022-11-02T01:50:12.816Z,72.52
2022-11-02T01:50:24.276Z,72.49
2022-11-02T01:50:32.813Z,72.58
2022-11-02T01:50:44.278Z,72.44
2022-11-02T01:50:52.877Z,72.55
2022-11-02T01:51:02.844Z,72.44
2022-11-02T01:51:14.243Z,72.45
2022-11-02T01:51:22.806Z,72.55
2022-11-02T01:51:32.816Z,72.45
2022-11-02T01:51:44.258Z,72.49
2022-11-02T01:51:52.806Z,72.51
2022-11-02T01:52:02.795Z,72.46
2022-11-02T01:52:14.250Z,72.49
2022-11-02T01:52:24.235Z,72.62
2022-11-02T01:52:32.926Z,72.57
2022-11-02T01:52:44.227Z,72.51
2022-11-02T01:52:52.899Z,72.59
2022-11-02T01:53:02.927Z,72.52
2022-11-02T01:53:13.607Z,72.50
2022-11-02T01:53:22.804Z,72.54
2022-11-02T01:53:32.927Z,72.52
2022-11-02T01:53:44.231Z,72.54
2022-11-02T01:53:53.009Z,72.67
2022-11-02T01:54:02.938Z,72.57
2022-11-02T01:54:14.216Z,72.57
2022-11-02T01:54:24.259Z,72.67
2022-11-02T01:54:32.802Z,72.62
2022-11-02T01:54:44.248Z,72.54
2022-11-02T01:54:53.694Z,72.64
2022-11-02T01:55:02.777Z,72.63
2022-11-02T01:55:13.314Z,72.56
2022-11-02T01:55:24.236Z,72.64
2022-11-02T01:55:33.738Z,72.69
2022-11-02T01:55:42.836Z,72.59
2022-11-02T01:55:52.749Z,72.58
2022-11-02T01:56:02.798Z,72.64
2022-11-02T01:56:12.829Z,72.65
2022-11-02T01:56:24.235Z,72.65
2022-11-02T01:56:34.217Z,72.75
2022-11-02T01:56:42.768Z,72.73
2022-11-02T01:56:52.763Z,72.62
2022-11-02T01:57:04.220Z,72.65
2022-11-02T01:57:14.209Z,72.79
2022-11-02T01:57:23.716Z,72.73
2022-11-02T01:57:34.209Z,72.70
2022-11-02T01:57:44.197Z,72.72
2022-11-02T01:57:54.195Z,72.71
2022-11-02T01:58:04.500Z,72.71
2022-11-02T01:58:14.201Z,72.71
2022-11-02T01:58:24.203Z,72.66
2022-11-02T01:58:34.208Z,72.69
2022-11-02T01:58:44.208Z,72.65
2022-11-02T01:58:54.196Z,72.70
2022-11-02T01:59:04.209Z,72.69
2022-11-02T01:59:14.218Z,72.70
2022-11-02T01:59:22.773Z,72.68
2022-11-02T01:59:34.198Z,72.64
2022-11-02T01:59:44.198Z,72.73
2022-11-02T01:59:52.730Z,72.70
2022-11-02T02:00:04.200Z,72.64
2022-11-02T02:00:13.694Z,72.76
2022-11-02T02:00:24.261Z,72.68
2022-11-02T02:00:34.193Z,72.69
2022-11-02T02:00:44.190Z,72.71
2022-11-02T02:00:52.739Z,72.75
2022-11-02T02:01:04.183Z,72.67
2022-11-02T02:01:14.309Z,72.76
2022-11-02T02:01:24.351Z,72.78
2022-11-02T02:01:34.239Z,72.76
2022-11-02T02:01:44.354Z,72.75
2022-11-02T02:01:54.287Z,72.79
2022-11-02T02:02:02.856Z,72.79
2022-11-02T02:02:14.278Z,72.67
2022-11-02T02:02:22.814Z,72.78
2022-11-02T02:02:34.345Z,72.74
2022-11-02T02:02:44.257Z,72.83
2022-11-02T02:02:54.195Z,72.76
2022-11-02T02:03:02.732Z,72.81
2022-11-02T02:03:14.168Z,72.72
2022-11-02T02:03:22.731Z,72.90
2022-11-02T02:03:32.731Z,72.81
2022-11-02T02:03:44.176Z,72.84
2022-11-02T02:03:54.160Z,72.95
2022-11-02T02:04:02.762Z,72.96
2022-11-02T02:04:14.171Z,72.82
2022-11-02T02:04:22.771Z,72.97
2022-11-02T02:04:34.170Z,72.87
2022-11-02T02:04:44.172Z,72.95
2022-11-02T02:04:52.700Z,72.89
2022-11-02T02:05:02.739Z,72.86
2022-11-02T02:05:14.143Z,72.86
2022-11-02T02:05:22.740Z,72.99
2022-11-02T02:05:32.720Z,72.90
2022-11-02T02:05:44.160Z,72.90
2022-11-02T02:05:52.700Z,73.01
2022-11-02T02:06:02.692Z,72.88
2022-11-02T02:06:12.717Z,72.91
2022-11-02T02:06:22.728Z,72.94
2022-11-02T02:06:34.149Z,72.94
2022-11-02T02:06:44.149Z,73.02
2022-11-02T02:06:54.149Z,73.00
2022-11-02T02:07:04.131Z,72.94
2022-11-02T02:07:12.699Z,72.96
2022-11-02T02:07:24.138Z,72.90
2022-11-02T02:07:34.117Z,72.99
2022-11-02T02:07:43.479Z,73.01
2022-11-02T02:07:52.702Z,72.99
2022-11-02T02:08:04.482Z,72.93
2022-11-02T02:08:13.654Z,73.14
2022-11-02T02:08:22.740Z,73.03
2022-11-02T02:08:34.141Z,73.03
2022-11-02T02:08:42.679Z,73.13
2022-11-02T02:08:54.130Z,73.04
2022-11-02T02:09:02.683Z,73.16
2022-11-02T02:09:14.131Z,73.03
2022-11-02T02:09:22.752Z,73.14